Time;durP1;ratioP1;P1;durP2;ratioP2;P2;SDS_P1;SDS_P2;PMS_P1;PMS_P2;Temp;Humidity;BMP_temperature;BMP_pressure;BME280_temperature;BME280_humidity;BME280_pressure;Samples;Min_cycle;Max_cycle;Signal;HPM_P1;HPM_P2
2022/10/04 00:05:00;;;;;;;27.38;14.02;;;;;;;7.32;100.00;101134.78;20803541;28;20065;-69
2022/10/04 00:15:01;;;;;;;26.83;13.90;;;;;;;7.40;100.00;101127.91;20804439;28;20057;-68
2022/10/04 00:25:02;;;;;;;32.97;13.63;;;;;;;7.30;100.00;101115.69;20803188;28;20429;-69
2022/10/04 00:35:03;;;;;;;28.30;14.00;;;;;;;7.12;100.00;101120.72;20803629;28;20099;-68
2022/10/04 00:45:05;;;;;;;26.63;13.65;;;;;;;7.08;100.00;101119.78;20802720;28;20042;-68
2022/10/04 00:55:06;;;;;;;24.73;13.30;;;;;;;7.13;100.00;101112.03;20804872;28;20057;-68
2022/10/04 01:05:09;;;;;;;29.23;14.48;;;;;;;7.14;100.00;101111.19;20816707;28;20073;-68
2022/10/04 01:15:10;;;;;;;26.85;13.13;;;;;;;7.13;100.00;101109.44;20815413;28;20052;-68
2022/10/04 01:25:12;;;;;;;24.52;12.50;;;;;;;7.07;100.00;101097.22;20815467;28;20049;-68
2022/10/04 01:35:13;;;;;;;33.50;12.85;;;;;;;7.04;100.00;101083.28;20814456;28;20049;-67
2022/10/04 01:45:14;;;;;;;27.83;13.38;;;;;;;7.02;100.00;101066.81;20812839;28;20049;-68
2022/10/04 01:55:16;;;;;;;27.15;12.05;;;;;;;7.03;100.00;101047.72;20812017;28;20079;-69
2022/10/04 02:05:17;;;;;;;29.63;13.80;;;;;;;6.89;100.00;101048.44;20811145;28;20500;-69
2022/10/04 02:15:19;;;;;;;32.42;13.68;;;;;;;7.01;100.00;101049.44;20810805;28;20487;-69
2022/10/04 02:25:20;;;;;;;35.83;15.02;;;;;;;7.01;100.00;101047.69;20811041;28;20060;-69
2022/10/04 02:35:21;;;;;;;41.85;15.77;;;;;;;7.11;100.00;101046.06;20811226;28;20123;-69
2022/10/04 02:45:23;;;;;;;38.63;13.68;;;;;;;7.09;100.00;101026.94;20809019;28;20077;-70
2022/10/04 02:55:26;;;;;;;43.83;13.98;;;;;;;6.97;100.00;101024.22;20809335;28;20092;-70
2022/10/04 03:05:27;;;;;;;30.00;12.55;;;;;;;7.00;100.00;101029.47;20807989;28;20103;-69
2022/10/04 03:15:29;;;;;;;25.90;12.27;;;;;;;6.99;100.00;101014.69;20804524;28;20061;-70
2022/10/04 03:25:30;;;;;;;32.40;12.45;;;;;;;7.07;100.00;101010.44;20804677;28;20061;-70
2022/10/04 03:35:31;;;;;;;30.77;12.48;;;;;;;6.90;100.00;101011.16;20806144;28;20057;-69
2022/10/04 03:45:33;;;;;;;21.42;10.75;;;;;;;6.99;100.00;101005.13;20805659;28;20104;-69
2022/10/04 03:55:35;;;;;;;22.02;11.57;;;;;;;6.91;100.00;101012.91;20803788;28;20099;-69
2022/10/04 04:05:36;;;;;;;18.08;10.63;;;;;;;6.89;100.00;101025.00;20803211;28;20073;-70
2022/10/04 04:15:42;;;;;;;22.10;11.88;;;;;;;6.84;100.00;101024.09;20804398;28;20050;-70
2022/10/04 04:25:44;;;;;;;19.17;9.90;;;;;;;6.70;100.00;101033.50;20804575;28;20338;-69
2022/10/04 04:35:46;;;;;;;17.65;10.05;;;;;;;6.64;100.00;101036.06;20815868;28;20270;-70
2022/10/04 04:45:48;;;;;;;21.73;11.57;;;;;;;6.64;100.00;101023.91;20818190;28;20052;-70
2022/10/04 04:56:08;;;;;;;16.95;9.32;;;;;;;6.46;100.00;101033.25;20817702;28;20041;-70
2022/10/04 05:06:13;;;;;;;17.52;9.20;;;;;;;6.50;100.00;101040.22;20815710;28;20104;-70
2022/10/04 05:16:14;;;;;;;19.17;12.45;;;;;;;6.48;100.00;101039.34;20816264;28;20403;-71
2022/10/04 05:26:16;;;;;;;22.13;11.13;;;;;;;6.47;100.00;101045.38;20815458;28;20144;-70
2022/10/04 05:36:17;;;;;;;22.15;11.57;;;;;;;6.56;100.00;101066.31;20816168;28;20421;-70
2022/10/04 05:46:18;;;;;;;19.42;10.25;;;;;;;6.55;100.00;101049.81;20813235;28;20045;-70
2022/10/04 05:56:20;;;;;;;20.58;12.43;;;;;;;6.62;100.00;101045.59;20812058;28;20053;-69
2022/10/04 06:06:21;;;;;;;21.90;10.60;;;;;;;6.90;100.00;101033.72;20812009;28;20041;-69
2022/10/04 06:16:22;;;;;;;24.75;10.88;;;;;;;7.17;100.00;101025.25;20812441;28;20560;-69
2022/10/04 06:26:24;;;;;;;26.90;13.70;;;;;;;7.35;100.00;101033.22;20810259;28;20045;-68
2022/10/04 06:36:25;;;;;;;17.05;8.88;;;;;;;7.39;100.00;101040.22;20811839;28;20057;-67
2022/10/04 06:46:27;;;;;;;20.15;9.70;;;;;;;7.45;100.00;101057.63;20809404;28;20568;-67
2022/10/04 06:56:28;;;;;;;20.75;9.95;;;;;;;7.44;100.00;101061.97;20799440;28;20529;-67
2022/10/04 07:06:29;;;;;;;25.02;11.35;;;;;;;7.60;100.00;101075.09;20793929;28;20465;-67
2022/10/04 07:16:31;;;;;;;31.45;12.52;;;;;;;7.84;100.00;101071.78;20794327;28;20065;-67
2022/10/04 07:26:32;;;;;;;30.33;13.45;;;;;;;8.14;100.00;101065.84;20802545;28;20050;-68
2022/10/04 07:36:33;;;;;;;29.25;15.05;;;;;;;8.21;100.00;101080.69;20805964;28;20111;-68
2022/10/04 07:46:36;;;;;;;29.85;15.85;;;;;;;8.16;100.00;101074.56;20805095;28;20052;-68
2022/10/04 07:56:37;;;;;;;36.17;16.33;;;;;;;8.48;100.00;101066.94;20802318;28;20045;-68
2022/10/04 08:06:38;;;;;;;32.25;17.10;;;;;;;8.70;100.00;101070.47;20796468;28;20580;-68
2022/10/04 08:16:40;;;;;;;29.55;16.77;;;;;;;8.67;100.00;101071.34;20808557;28;20120;-68
2022/10/04 08:26:42;;;;;;;30.20;17.42;;;;;;;9.20;100.00;101081.00;20810323;28;20516;-68
2022/10/04 08:36:44;;;;;;;31.27;15.95;;;;;;;9.22;100.00;101099.28;20820435;28;20065;-68
2022/10/04 08:46:46;;;;;;;32.42;17.92;;;;;;;9.37;100.00;101086.22;20818235;28;20064;-68
2022/10/04 08:56:48;;;;;;;30.63;16.73;;;;;;;9.73;100.00;101066.19;20817533;28;20136;-68
2022/10/04 09:06:49;;;;;;;31.70;20.02;;;;;;;10.33;100.00;101066.91;20817615;28;20049;-67
2022/10/04 09:16:51;;;;;;;32.35;18.33;;;;;;;10.43;100.00;101079.06;20816957;28;20053;-68
2022/10/04 09:26:52;;;;;;;27.08;17.30;;;;;;;10.66;100.00;101067.63;20815925;28;20149;-67
2022/10/04 09:36:54;;;;;;;25.63;15.43;;;;;;;10.87;100.00;101077.97;20816015;28;20088;-67
2022/10/04 09:46:56;;;;;;;27.48;14.40;;;;;;;10.96;100.00;101075.28;20813804;28;20179;-68
2022/10/04 09:56:58;;;;;;;28.63;17.80;;;;;;;10.77;100.00;101077.16;20813366;28;20045;-68
2022/10/04 10:06:59;;;;;;;26.73;17.10;;;;;;;10.89;100.00;101065.75;20812610;28;20111;-67
2022/10/04 10:17:01;;;;;;;26.67;14.35;;;;;;;11.56;100.00;101065.22;20811632;28;20093;-68
2022/10/04 10:27:02;;;;;;;23.33;12.93;;;;;;;11.62;100.00;101064.28;20810808;28;20049;-68
2022/10/04 10:37:03;;;;;;;21.23;12.70;;;;;;;12.00;100.00;101061.31;20810538;28;20045;-68
2022/10/04 10:47:05;;;;;;;27.65;13.98;;;;;;;12.60;100.00;101050.09;20806869;28;20099;-68
2022/10/04 10:57:06;;;;;;;15.43;9.98;;;;;;;12.67;100.00;101027.22;20808426;28;20053;-67
2022/10/04 11:07:07;;;;;;;12.77;7.90;;;;;;;12.73;100.00;101017.47;20803828;28;20053;-67
2022/10/04 11:17:09;;;;;;;14.45;8.38;;;;;;;12.54;100.00;101011.59;20804243;28;20409;-67
2022/10/04 11:27:10;;;;;;;15.18;8.32;;;;;;;13.07;100.00;100999.41;20808740;28;20057;-67
2022/10/04 11:37:12;;;;;;;13.82;9.35;;;;;;;13.33;100.00;100999.03;20805644;28;20103;-67
2022/10/04 11:47:14;;;;;;;14.23;8.88;;;;;;;13.60;100.00;101009.91;20806959;28;20053;-67
2022/10/04 11:57:16;;;;;;;13.40;7.53;;;;;;;13.59;100.00;101001.16;20803375;28;20111;-67
2022/10/04 12:07:19;;;;;;;14.23;9.15;;;;;;;13.99;100.00;100987.25;20803946;28;20069;-67
2022/10/04 12:17:20;;;;;;;11.52;7.28;;;;;;;13.98;100.00;100977.59;20803582;28;20050;-67
2022/10/04 12:27:22;;;;;;;13.00;6.55;;;;;;;14.20;100.00;100961.34;20806483;28;20048;-68
2022/10/04 12:37:24;;;;;;;11.32;6.05;;;;;;;14.35;100.00;100963.66;20803842;28;20580;-67
2022/10/04 12:47:26;;;;;;;10.02;5.70;;;;;;;14.61;100.00;100957.81;20803753;28;20111;-67
2022/10/04 12:57:27;;;;;;;9.50;5.75;;;;;;;14.70;100.00;100944.41;20813931;28;20188;-66
2022/10/04 13:07:28;;;;;;;9.07;4.80;;;;;;;14.85;100.00;100924.72;20816810;28;20049;-67
2022/10/04 13:17:30;;;;;;;8.75;4.72;;;;;;;14.94;100.00;100924.50;20816371;28;20115;-67
2022/10/04 13:27:37;;;;;;;8.90;4.90;;;;;;;15.02;100.00;100919.91;20817410;28;20080;-66
2022/10/04 13:37:38;;;;;;;8.45;4.72;;;;;;;15.26;100.00;100917.53;20814719;28;20100;-67
2022/10/04 13:47:40;;;;;;;7.68;4.65;;;;;;;15.43;100.00;100903.84;20815697;28;20049;-66
2022/10/04 13:57:41;;;;;;;11.20;6.47;;;;;;;15.70;100.00;100899.63;20813802;28;20041;-66
2022/10/04 14:07:43;;;;;;;9.50;5.80;;;;;;;15.67;100.00;100886.53;20811138;28;20124;-67
2022/10/04 14:17:45;;;;;;;9.07;4.80;;;;;;;15.58;100.00;100866.50;20811691;28;20119;-66
2022/10/04 14:27:46;;;;;;;8.70;4.43;;;;;;;15.76;100.00;100868.66;20811764;28;20157;-66
2022/10/04 14:37:48;;;;;;;8.57;4.90;;;;;;;15.75;100.00;100863.38;20805300;28;20391;-66
2022/10/04 14:47:49;;;;;;;7.75;4.18;;;;;;;15.69;100.00;100866.22;20807953;28;20546;-66
2022/10/04 14:57:50;;;;;;;8.88;5.15;;;;;;;15.87;100.00;100865.66;20802746;28;20552;-66
2022/10/04 15:07:51;;;;;;;7.53;4.10;;;;;;;15.88;100.00;100864.75;20804898;28;20073;-66
2022/10/04 15:17:53;;;;;;;5.28;3.70;;;;;;;15.80;100.00;100843.00;20803543;28;20353;-66
2022/10/04 15:27:54;;;;;;;13.20;8.93;;;;;;;15.65;100.00;100829.34;20788767;28;20640;-66
2022/10/04 15:37:55;;;;;;;8.45;6.25;;;;;;;15.43;100.00;100836.13;20804387;28;20220;-66
2022/10/04 15:47:57;;;;;;;9.30;4.97;;;;;;;15.52;100.00;100820.03;20803742;28;20051;-67
2022/10/04 15:58:01;;;;;;;8.13;4.40;;;;;;;15.38;100.00;100809.88;20804321;28;20493;-67
2022/10/04 16:08:03;;;;;;;8.03;4.67;;;;;;;15.16;100.00;100819.31;20797494;28;20053;-67
2022/10/04 16:18:04;;;;;;;10.52;5.40;;;;;;;14.77;100.00;100831.81;20799550;28;20053;-67
2022/10/04 16:28:06;;;;;;;9.48;5.22;;;;;;;14.36;100.00;100820.50;20806922;28;20045;-67
2022/10/04 16:38:08;;;;;;;9.18;5.50;;;;;;;13.97;100.00;100830.22;20811450;28;20049;-67
2022/10/04 16:48:09;;;;;;;10.15;5.43;;;;;;;13.69;100.00;100822.91;20815935;28;20107;-67
2022/10/04 16:58:10;;;;;;;11.57;6.03;;;;;;;13.46;100.00;100799.75;20809918;28;20099;-67
2022/10/04 17:08:12;;;;;;;13.57;8.45;;;;;;;13.14;100.00;100807.41;20809882;28;20046;-67
2022/10/04 17:18:13;;;;;;;11.48;6.55;;;;;;;12.66;100.00;100820.56;20812205;28;20405;-67
2022/10/04 17:28:14;;;;;;;10.00;6.53;;;;;;;12.51;100.00;100829.56;20812740;28;20268;-66
2022/10/04 17:38:17;;;;;;;13.07;7.03;;;;;;;12.20;100.00;100837.91;20808382;28;20046;-66
2022/10/04 17:58:39;;;;;;;18.25;9.18;;;;;;;11.82;100.00;100843.72;20808761;28;20053;-67
2022/10/04 18:08:41;;;;;;;13.48;7.38;;;;;;;11.63;100.00;100834.34;20803299;28;20057;-67
2022/10/04 18:18:43;;;;;;;10.02;6.93;;;;;;;11.47;100.00;100842.41;20806526;28;20060;-67
2022/10/04 18:28:46;;;;;;;16.13;7.57;;;;;;;11.28;100.00;100844.38;20805277;28;20086;-67
2022/10/04 18:38:48;;;;;;;16.17;8.55;;;;;;;11.16;100.00;100848.88;20804087;28;20057;-67
2022/10/04 18:48:53;;;;;;;13.68;7.43;;;;;;;11.01;100.00;100850.78;20804385;28;20144;-67
2022/10/04 19:09:14;;;;;;;15.02;8.18;;;;;;;10.77;100.00;100862.34;20799814;28;20045;-66
2022/10/04 19:19:16;;;;;;;22.63;13.38;;;;;;;10.60;100.00;100881.75;20802440;28;20148;-67
2022/10/04 19:29:18;;;;;;;20.85;14.30;;;;;;;10.47;100.00;100889.69;20802366;28;20309;-67
2022/10/04 19:39:20;;;;;;;20.02;14.32;;;;;;;10.42;100.00;100903.69;20799837;28;20060;-67
2022/10/04 19:49:22;;;;;;;18.55;11.07;;;;;;;10.30;100.00;100906.38;20800473;28;20516;-67
2022/10/04 19:59:23;;;;;;;15.95;10.02;;;;;;;10.15;100.00;100920.38;20801444;28;20069;-67
2022/10/04 20:09:25;;;;;;;15.05;10.25;;;;;;;9.98;100.00;100918.75;20816586;28;20060;-68
2022/10/04 20:19:27;;;;;;;18.67;12.73;;;;;;;9.93;100.00;100920.50;20817555;28;20065;-69
2022/10/04 20:29:29;;;;;;;21.33;13.02;;;;;;;9.90;100.00;100933.59;20841222;28;20053;-69
2022/10/04 20:39:30;;;;;;;25.42;12.45;;;;;;;9.77;100.00;100931.91;20902877;28;20107;-69
2022/10/04 20:49:32;;;;;;;22.10;13.50;;;;;;;9.69;100.00;100945.03;20903330;28;20497;-69
2022/10/04 20:59:33;;;;;;;24.90;13.52;;;;;;;9.60;100.00;100958.13;20902149;28;20048;-68
2022/10/04 21:09:34;;;;;;;22.92;13.73;;;;;;;9.57;100.00;100970.31;20900752;28;20065;-69
2022/10/04 21:19:37;;;;;;;21.48;12.20;;;;;;;9.43;100.00;100947.69;20818682;28;20092;-69
2022/10/04 21:29:39;;;;;;;19.48;11.55;;;;;;;9.35;100.00;100949.47;20839924;28;20060;-69
2022/10/04 21:39:40;;;;;;;18.98;11.13;;;;;;;9.24;100.00;100948.59;20900189;28;20057;-69
2022/10/04 21:49:41;;;;;;;18.65;10.60;;;;;;;9.09;100.00;100941.66;20899570;28;20084;-69
2022/10/04 21:59:42;;;;;;;22.58;13.63;;;;;;;9.01;100.00;100946.03;20897966;28;20053;-68
2022/10/04 22:09:44;;;;;;;22.17;12.50;;;;;;;8.98;100.00;100944.28;20822932;28;20061;-68
2022/10/04 22:19:45;;;;;;;22.13;12.35;;;;;;;8.85;100.00;100920.78;20823289;28;20061;-68
2022/10/04 22:29:46;;;;;;;21.10;11.77;;;;;;;8.88;100.00;100916.44;20846062;28;20052;-69
2022/10/04 22:39:48;;;;;;;17.92;10.80;;;;;;;8.77;100.00;100905.13;20904520;28;20472;-68
2022/10/04 22:49:51;;;;;;;20.25;10.93;;;;;;;8.74;100.00;100905.13;20902748;28;20052;-68
2022/10/04 22:59:52;;;;;;;21.35;11.40;;;;;;;8.73;100.00;100899.03;20902730;28;20095;-68
2022/10/04 23:09:54;;;;;;;18.83;11.23;;;;;;;8.61;100.00;100895.53;20902495;28;20064;-69
2022/10/04 23:19:55;;;;;;;22.17;10.23;;;;;;;8.58;100.00;100892.94;20902070;28;20083;-68
2022/10/04 23:29:56;;;;;;;19.92;11.35;;;;;;;8.47;100.00;100887.69;20899906;28;20056;-68
2022/10/04 23:39:58;;;;;;;22.23;12.10;;;;;;;8.39;100.00;100885.09;20897823;28;20291;-68
2022/10/04 23:49:59;;;;;;;17.92;10.25;;;;;;;8.37;100.00;100880.75;20900320;28;20060;-68
